sensor_id;sensor_type;location;lat;lon;timestamp;temperature;humidity
15638;DHT22;26604;53.596;10.042;2022-08-04T00:02:24;23.10;42.30
15638;DHT22;26604;53.596;10.042;2022-08-04T00:04:56;23.10;43.00
15638;DHT22;26604;53.596;10.042;2022-08-04T00:07:33;23.10;41.20
15638;DHT22;26604;53.596;10.042;2022-08-04T00:10:04;23.20;40.10
15638;DHT22;26604;53.596;10.042;2022-08-04T00:12:35;23.20;38.20
15638;DHT22;26604;53.596;10.042;2022-08-04T00:15:04;23.20;39.30
15638;DHT22;26604;53.596;10.042;2022-08-04T00:17:38;23.20;38.70
15638;DHT22;26604;53.596;10.042;2022-08-04T00:20:06;23.10;38.60
15638;DHT22;26604;53.596;10.042;2022-08-04T00:22:38;23.10;38.00
15638;DHT22;26604;53.596;10.042;2022-08-04T00:25:07;23.10;37.00
15638;DHT22;26604;53.596;10.042;2022-08-04T00:27:34;23.10;37.10
15638;DHT22;26604;53.596;10.042;2022-08-04T00:30:03;23.10;37.20
15638;DHT22;26604;53.596;10.042;2022-08-04T00:32:30;23.00;37.80
15638;DHT22;26604;53.596;10.042;2022-08-04T00:34:58;23.00;40.10
15638;DHT22;26604;53.596;10.042;2022-08-04T00:37:26;23.00;40.20
15638;DHT22;26604;53.596;10.042;2022-08-04T00:39:54;23.00;39.10
15638;DHT22;26604;53.596;10.042;2022-08-04T00:42:34;22.90;40.50
15638;DHT22;26604;53.596;10.042;2022-08-04T00:45:18;22.90;39.70
15638;DHT22;26604;53.596;10.042;2022-08-04T00:48:01;23.00;39.20
15638;DHT22;26604;53.596;10.042;2022-08-04T00:50:38;23.00;36.50
15638;DHT22;26604;53.596;10.042;2022-08-04T00:53:13;23.00;35.70
15638;DHT22;26604;53.596;10.042;2022-08-04T00:56:13;23.10;34.60
15638;DHT22;26604;53.596;10.042;2022-08-04T00:58:49;23.10;33.40
15638;DHT22;26604;53.596;10.042;2022-08-04T01:01:34;23.20;31.30
15638;DHT22;26604;53.596;10.042;2022-08-04T01:04:11;23.20;29.90
15638;DHT22;26604;53.596;10.042;2022-08-04T01:06:52;23.30;28.70
15638;DHT22;26604;53.596;10.042;2022-08-04T01:09:36;23.30;28.00
15638;DHT22;26604;53.596;10.042;2022-08-04T01:12:35;23.30;27.40
15638;DHT22;26604;53.596;10.042;2022-08-04T01:15:08;23.40;26.50
15638;DHT22;26604;53.596;10.042;2022-08-04T01:17:42;23.40;25.70
15638;DHT22;26604;53.596;10.042;2022-08-04T01:20:17;23.40;24.50
15638;DHT22;26604;53.596;10.042;2022-08-04T01:26:25;23.40;21.80
15638;DHT22;26604;53.596;10.042;2022-08-04T01:29:03;23.40;21.30
15638;DHT22;26604;53.596;10.042;2022-08-04T01:31:36;23.40;20.70
15638;DHT22;26604;53.596;10.042;2022-08-04T01:34:11;23.40;20.80
15638;DHT22;26604;53.596;10.042;2022-08-04T01:36:44;23.40;21.50
15638;DHT22;26604;53.596;10.042;2022-08-04T01:39:11;23.30;21.80
15638;DHT22;26604;53.596;10.042;2022-08-04T01:41:54;23.30;21.10
15638;DHT22;26604;53.596;10.042;2022-08-04T01:44:26;23.40;20.80
15638;DHT22;26604;53.596;10.042;2022-08-04T01:46:54;23.40;18.90
15638;DHT22;26604;53.596;10.042;2022-08-04T01:49:21;23.40;19.60
15638;DHT22;26604;53.596;10.042;2022-08-04T01:51:55;23.40;19.00
15638;DHT22;26604;53.596;10.042;2022-08-04T01:54:23;23.40;18.80
15638;DHT22;26604;53.596;10.042;2022-08-04T01:56:52;23.40;18.70
15638;DHT22;26604;53.596;10.042;2022-08-04T01:59:21;23.40;18.50
15638;DHT22;26604;53.596;10.042;2022-08-04T02:01:49;23.40;18.60
15638;DHT22;26604;53.596;10.042;2022-08-04T02:04:19;23.40;18.30
15638;DHT22;26604;53.596;10.042;2022-08-04T02:06:51;23.40;17.70
15638;DHT22;26604;53.596;10.042;2022-08-04T02:09:31;23.40;17.20
15638;DHT22;26604;53.596;10.042;2022-08-04T02:12:04;23.40;16.50
15638;DHT22;26604;53.596;10.042;2022-08-04T02:14:39;23.50;16.10
15638;DHT22;26604;53.596;10.042;2022-08-04T02:17:12;23.50;15.80
15638;DHT22;26604;53.596;10.042;2022-08-04T02:19:56;23.50;15.40
15638;DHT22;26604;53.596;10.042;2022-08-04T02:22:27;23.50;15.10
15638;DHT22;26604;53.596;10.042;2022-08-04T02:25:04;23.50;14.90
15638;DHT22;26604;53.596;10.042;2022-08-04T02:27:40;23.50;14.80
15638;DHT22;26604;53.596;10.042;2022-08-04T02:30:11;23.50;14.60
15638;DHT22;26604;53.596;10.042;2022-08-04T02:32:41;23.50;14.40
15638;DHT22;26604;53.596;10.042;2022-08-04T02:35:14;23.40;14.00
15638;DHT22;26604;53.596;10.042;2022-08-04T02:37:46;23.40;13.50
15638;DHT22;26604;53.596;10.042;2022-08-04T02:40:19;23.50;13.20
15638;DHT22;26604;53.596;10.042;2022-08-04T02:42:47;23.50;13.00
15638;DHT22;26604;53.596;10.042;2022-08-04T02:45:17;23.50;13.00
15638;DHT22;26604;53.596;10.042;2022-08-04T02:47:47;23.40;12.70
15638;DHT22;26604;53.596;10.042;2022-08-04T02:50:17;23.40;12.60
15638;DHT22;26604;53.596;10.042;2022-08-04T02:52:46;23.40;12.30
15638;DHT22;26604;53.596;10.042;2022-08-04T02:55:16;23.40;11.90
15638;DHT22;26604;53.596;10.042;2022-08-04T02:57:44;23.40;11.70
15638;DHT22;26604;53.596;10.042;2022-08-04T03:00:15;23.40;11.60
15638;DHT22;26604;53.596;10.042;2022-08-04T03:03:01;23.40;11.60
15638;DHT22;26604;53.596;10.042;2022-08-04T03:05:38;23.40;11.70
15638;DHT22;26604;53.596;10.042;2022-08-04T03:08:37;23.50;11.30
15638;DHT22;26604;53.596;10.042;2022-08-04T03:11:34;23.50;11.50
15638;DHT22;26604;53.596;10.042;2022-08-04T03:17:52;23.40;11.30
15638;DHT22;26604;53.596;10.042;2022-08-04T03:21:04;23.40;11.30
15638;DHT22;26604;53.596;10.042;2022-08-04T03:23:59;23.40;11.60
15638;DHT22;26604;53.596;10.042;2022-08-04T03:36:25;23.30;12.30
15638;DHT22;26604;53.596;10.042;2022-08-04T03:39:30;23.20;12.90
15638;DHT22;26604;53.596;10.042;2022-08-04T03:48:36;23.10;12.70
15638;DHT22;26604;53.596;10.042;2022-08-04T03:51:17;23.10;13.10
15638;DHT22;26604;53.596;10.042;2022-08-04T03:54:32;23.10;13.80
15638;DHT22;26604;53.596;10.042;2022-08-04T03:57:28;23.10;14.80
15638;DHT22;26604;53.596;10.042;2022-08-04T04:00:07;23.20;15.10
15638;DHT22;26604;53.596;10.042;2022-08-04T04:06:29;23.20;11.60
15638;DHT22;26604;53.596;10.042;2022-08-04T04:09:24;23.20;11.10
15638;DHT22;26604;53.596;10.042;2022-08-04T04:14:56;23.30;9.10
15638;DHT22;26604;53.596;10.042;2022-08-04T04:17:51;23.40;8.10
15638;DHT22;26604;53.596;10.042;2022-08-04T04:20:31;23.40;7.60
15638;DHT22;26604;53.596;10.042;2022-08-04T04:23:18;23.40;6.40
15638;DHT22;26604;53.596;10.042;2022-08-04T04:26:06;23.50;5.60
15638;DHT22;26604;53.596;10.042;2022-08-04T04:29:02;23.50;5.00
15638;DHT22;26604;53.596;10.042;2022-08-04T04:31:48;23.50;4.50
15638;DHT22;26604;53.596;10.042;2022-08-04T04:34:34;23.60;4.10
15638;DHT22;26604;53.596;10.042;2022-08-04T04:37:19;23.60;3.50
15638;DHT22;26604;53.596;10.042;2022-08-04T04:39:58;23.60;3.00
15638;DHT22;26604;53.596;10.042;2022-08-04T04:42:37;23.60;2.60
15638;DHT22;26604;53.596;10.042;2022-08-04T04:45:23;23.70;2.40
15638;DHT22;26604;53.596;10.042;2022-08-04T04:47:57;23.70;2.20
15638;DHT22;26604;53.596;10.042;2022-08-04T04:50:33;23.70;1.90
15638;DHT22;26604;53.596;10.042;2022-08-04T04:53:08;23.70;1.60
15638;DHT22;26604;53.596;10.042;2022-08-04T04:55:42;23.70;1.10
15638;DHT22;26604;53.596;10.042;2022-08-04T04:58:15;23.70;1.00
15638;DHT22;26604;53.596;10.042;2022-08-04T05:01:02;23.70;1.00
15638;DHT22;26604;53.596;10.042;2022-08-04T05:03:52;23.70;1.00
15638;DHT22;26604;53.596;10.042;2022-08-04T05:06:54;23.70;1.00
15638;DHT22;26604;53.596;10.042;2022-08-04T05:09:35;23.70;1.00
15638;DHT22;26604;53.596;10.042;2022-08-04T05:12:25;23.70;1.00
15638;DHT22;26604;53.596;10.042;2022-08-04T05:14:59;23.70;1.00
15638;DHT22;26604;53.596;10.042;2022-08-04T05:17:32;23.70;1.00
15638;DHT22;26604;53.596;10.042;2022-08-04T05:20:04;23.70;1.00
15638;DHT22;26604;53.596;10.042;2022-08-04T05:22:36;23.80;1.00
15638;DHT22;26604;53.596;10.042;2022-08-04T05:25:07;23.80;1.00
15638;DHT22;26604;53.596;10.042;2022-08-04T05:27:38;23.80;1.00
15638;DHT22;26604;53.596;10.042;2022-08-04T05:30:09;23.80;1.00
15638;DHT22;26604;53.596;10.042;2022-08-04T05:32:42;23.80;1.00
15638;DHT22;26604;53.596;10.042;2022-08-04T05:35:14;23.80;1.00
15638;DHT22;26604;53.596;10.042;2022-08-04T05:37:43;23.80;1.00
15638;DHT22;26604;53.596;10.042;2022-08-04T05:40:15;23.80;1.00
15638;DHT22;26604;53.596;10.042;2022-08-04T05:42:43;23.80;1.00
15638;DHT22;26604;53.596;10.042;2022-08-04T05:45:12;23.80;1.00
15638;DHT22;26604;53.596;10.042;2022-08-04T05:47:39;23.80;1.00
15638;DHT22;26604;53.596;10.042;2022-08-04T05:50:07;23.80;1.00
15638;DHT22;26604;53.596;10.042;2022-08-04T05:52:35;23.80;1.00
15638;DHT22;26604;53.596;10.042;2022-08-04T05:55:04;23.80;1.00
15638;DHT22;26604;53.596;10.042;2022-08-04T05:57:32;23.80;1.00
15638;DHT22;26604;53.596;10.042;2022-08-04T06:00:03;23.80;1.00
15638;DHT22;26604;53.596;10.042;2022-08-04T06:02:33;23.80;1.00
15638;DHT22;26604;53.596;10.042;2022-08-04T06:05:01;23.80;1.00
15638;DHT22;26604;53.596;10.042;2022-08-04T06:07:30;23.80;1.00
15638;DHT22;26604;53.596;10.042;2022-08-04T06:09:57;23.90;1.00
15638;DHT22;26604;53.596;10.042;2022-08-04T06:12:29;23.90;1.00
15638;DHT22;26604;53.596;10.042;2022-08-04T06:14:58;23.90;1.00
15638;DHT22;26604;53.596;10.042;2022-08-04T06:17:30;23.90;1.00
15638;DHT22;26604;53.596;10.042;2022-08-04T06:20:00;23.90;1.00
15638;DHT22;26604;53.596;10.042;2022-08-04T06:22:29;23.90;1.00
15638;DHT22;26604;53.596;10.042;2022-08-04T06:24:58;23.90;1.00
15638;DHT22;26604;53.596;10.042;2022-08-04T06:27:26;23.90;1.00
15638;DHT22;26604;53.596;10.042;2022-08-04T06:29:56;23.90;1.00
15638;DHT22;26604;53.596;10.042;2022-08-04T06:32:25;23.90;1.00
15638;DHT22;26604;53.596;10.042;2022-08-04T06:35:04;23.90;1.00
15638;DHT22;26604;53.596;10.042;2022-08-04T06:37:33;23.90;1.00
15638;DHT22;26604;53.596;10.042;2022-08-04T06:40:03;23.90;1.00
15638;DHT22;26604;53.596;10.042;2022-08-04T06:42:30;23.90;1.00
15638;DHT22;26604;53.596;10.042;2022-08-04T06:44:58;23.90;1.00
15638;DHT22;26604;53.596;10.042;2022-08-04T06:47:25;23.90;1.00
15638;DHT22;26604;53.596;10.042;2022-08-04T06:49:54;23.90;1.00
15638;DHT22;26604;53.596;10.042;2022-08-04T06:52:23;23.90;1.00
15638;DHT22;26604;53.596;10.042;2022-08-04T06:54:51;23.90;1.00
15638;DHT22;26604;53.596;10.042;2022-08-04T06:57:21;24.00;1.00
15638;DHT22;26604;53.596;10.042;2022-08-04T06:59:50;23.90;1.00
15638;DHT22;26604;53.596;10.042;2022-08-04T07:02:23;23.90;1.00
15638;DHT22;26604;53.596;10.042;2022-08-04T07:04:50;24.00;1.00
15638;DHT22;26604;53.596;10.042;2022-08-04T07:07:18;24.00;1.00
15638;DHT22;26604;53.596;10.042;2022-08-04T07:09:47;24.00;1.00
15638;DHT22;26604;53.596;10.042;2022-08-04T07:12:15;24.00;1.00
15638;DHT22;26604;53.596;10.042;2022-08-04T07:14:46;24.00;1.00
15638;DHT22;26604;53.596;10.042;2022-08-04T07:17:14;24.00;1.00
15638;DHT22;26604;53.596;10.042;2022-08-04T07:19:41;24.00;1.00
15638;DHT22;26604;53.596;10.042;2022-08-04T07:22:09;24.00;1.00
15638;DHT22;26604;53.596;10.042;2022-08-04T07:24:37;24.00;1.00
15638;DHT22;26604;53.596;10.042;2022-08-04T07:27:05;24.10;1.00
15638;DHT22;26604;53.596;10.042;2022-08-04T07:29:34;24.10;1.00
15638;DHT22;26604;53.596;10.042;2022-08-04T07:32:02;24.10;1.00
15638;DHT22;26604;53.596;10.042;2022-08-04T07:34:31;24.10;1.00
15638;DHT22;26604;53.596;10.042;2022-08-04T07:36:59;24.20;1.00
15638;DHT22;26604;53.596;10.042;2022-08-04T07:39:27;24.20;1.00
15638;DHT22;26604;53.596;10.042;2022-08-04T07:41:57;24.30;1.00
15638;DHT22;26604;53.596;10.042;2022-08-04T07:44:26;24.30;1.00
15638;DHT22;26604;53.596;10.042;2022-08-04T07:46:53;24.30;1.00
15638;DHT22;26604;53.596;10.042;2022-08-04T07:49:20;24.20;1.00
15638;DHT22;26604;53.596;10.042;2022-08-04T07:51:49;24.20;1.00
15638;DHT22;26604;53.596;10.042;2022-08-04T07:54:16;24.20;1.00
15638;DHT22;26604;53.596;10.042;2022-08-04T07:56:44;24.20;1.00
15638;DHT22;26604;53.596;10.042;2022-08-04T07:59:13;24.20;1.00
15638;DHT22;26604;53.596;10.042;2022-08-04T08:01:42;24.20;1.00
15638;DHT22;26604;53.596;10.042;2022-08-04T08:04:10;24.20;1.00
15638;DHT22;26604;53.596;10.042;2022-08-04T08:06:38;24.20;1.00
15638;DHT22;26604;53.596;10.042;2022-08-04T08:09:07;24.20;1.00
15638;DHT22;26604;53.596;10.042;2022-08-04T08:11:34;24.60;1.00
15638;DHT22;26604;53.596;10.042;2022-08-04T08:14:01;24.20;1.00
15638;DHT22;26604;53.596;10.042;2022-08-04T08:16:28;24.20;1.00
15638;DHT22;26604;53.596;10.042;2022-08-04T08:18:59;24.20;1.00
15638;DHT22;26604;53.596;10.042;2022-08-04T08:21:26;24.20;1.00
15638;DHT22;26604;53.596;10.042;2022-08-04T08:23:53;24.20;1.00
15638;DHT22;26604;53.596;10.042;2022-08-04T08:26:21;24.20;1.00
15638;DHT22;26604;53.596;10.042;2022-08-04T08:28:48;24.30;1.00
15638;DHT22;26604;53.596;10.042;2022-08-04T08:31:15;24.30;1.00
15638;DHT22;26604;53.596;10.042;2022-08-04T08:33:42;24.30;1.00
15638;DHT22;26604;53.596;10.042;2022-08-04T08:36:16;24.30;1.00
15638;DHT22;26604;53.596;10.042;2022-08-04T08:39:00;24.30;1.00
15638;DHT22;26604;53.596;10.042;2022-08-04T08:47:53;24.30;1.00
15638;DHT22;26604;53.596;10.042;2022-08-04T08:50:45;24.30;1.00
15638;DHT22;26604;53.596;10.042;2022-08-04T08:56:25;24.30;1.00
15638;DHT22;26604;53.596;10.042;2022-08-04T08:59:07;24.30;1.00
15638;DHT22;26604;53.596;10.042;2022-08-04T09:01:50;24.30;1.00
15638;DHT22;26604;53.596;10.042;2022-08-04T09:07:57;24.30;1.00
15638;DHT22;26604;53.596;10.042;2022-08-04T09:10:30;24.40;1.00
15638;DHT22;26604;53.596;10.042;2022-08-04T09:13:04;24.30;1.00
15638;DHT22;26604;53.596;10.042;2022-08-04T09:15:35;24.40;1.00
15638;DHT22;26604;53.596;10.042;2022-08-04T09:18:08;24.40;1.00
15638;DHT22;26604;53.596;10.042;2022-08-04T09:20:39;24.40;1.00
15638;DHT22;26604;53.596;10.042;2022-08-04T09:23:25;24.40;1.00
15638;DHT22;26604;53.596;10.042;2022-08-04T09:26:00;24.40;1.00
15638;DHT22;26604;53.596;10.042;2022-08-04T09:28:37;24.40;1.00
15638;DHT22;26604;53.596;10.042;2022-08-04T09:31:12;24.40;1.00
15638;DHT22;26604;53.596;10.042;2022-08-04T09:33:47;24.40;1.00
15638;DHT22;26604;53.596;10.042;2022-08-04T09:36:23;24.40;1.00
15638;DHT22;26604;53.596;10.042;2022-08-04T09:39:13;24.40;1.00
15638;DHT22;26604;53.596;10.042;2022-08-04T09:41:47;24.40;1.00
15638;DHT22;26604;53.596;10.042;2022-08-04T09:44:25;24.40;1.00
15638;DHT22;26604;53.596;10.042;2022-08-04T09:47:02;24.40;1.00
15638;DHT22;26604;53.596;10.042;2022-08-04T09:49:37;24.40;1.00
15638;DHT22;26604;53.596;10.042;2022-08-04T09:52:10;24.40;1.00
15638;DHT22;26604;53.596;10.042;2022-08-04T09:54:50;24.40;1.00
15638;DHT22;26604;53.596;10.042;2022-08-04T09:57:27;24.40;1.00
15638;DHT22;26604;53.596;10.042;2022-08-04T10:00:06;24.50;1.00
15638;DHT22;26604;53.596;10.042;2022-08-04T10:02:37;24.50;1.00
15638;DHT22;26604;53.596;10.042;2022-08-04T10:05:10;24.40;1.00
15638;DHT22;26604;53.596;10.042;2022-08-04T10:07:50;24.50;1.00
15638;DHT22;26604;53.596;10.042;2022-08-04T10:10:32;24.40;1.00
15638;DHT22;26604;53.596;10.042;2022-08-04T10:13:25;24.40;1.00
15638;DHT22;26604;53.596;10.042;2022-08-04T10:16:17;24.50;1.00
15638;DHT22;26604;53.596;10.042;2022-08-04T10:18:54;24.50;1.00
15638;DHT22;26604;53.596;10.042;2022-08-04T10:21:29;24.50;1.00
15638;DHT22;26604;53.596;10.042;2022-08-04T10:24:09;24.50;1.00
15638;DHT22;26604;53.596;10.042;2022-08-04T10:26:45;24.50;1.00
15638;DHT22;26604;53.596;10.042;2022-08-04T10:29:18;24.50;1.00
15638;DHT22;26604;53.596;10.042;2022-08-04T10:31:53;24.50;1.00
15638;DHT22;26604;53.596;10.042;2022-08-04T10:34:25;24.50;1.00
15638;DHT22;26604;53.596;10.042;2022-08-04T10:36:58;24.50;1.00
15638;DHT22;26604;53.596;10.042;2022-08-04T10:39:32;24.50;1.00
15638;DHT22;26604;53.596;10.042;2022-08-04T10:42:08;24.50;1.00
15638;DHT22;26604;53.596;10.042;2022-08-04T10:44:51;24.50;1.00
15638;DHT22;26604;53.596;10.042;2022-08-04T10:47:28;24.50;1.00
15638;DHT22;26604;53.596;10.042;2022-08-04T10:50:00;24.60;1.00
15638;DHT22;26604;53.596;10.042;2022-08-04T10:52:33;24.60;1.00
15638;DHT22;26604;53.596;10.042;2022-08-04T10:55:07;24.60;1.00
15638;DHT22;26604;53.596;10.042;2022-08-04T10:57:39;24.60;1.00
15638;DHT22;26604;53.596;10.042;2022-08-04T11:00:08;24.60;1.00
15638;DHT22;26604;53.596;10.042;2022-08-04T11:02:42;24.60;1.00
15638;DHT22;26604;53.596;10.042;2022-08-04T11:05:20;24.60;1.00
15638;DHT22;26604;53.596;10.042;2022-08-04T11:07:52;24.60;1.00
15638;DHT22;26604;53.596;10.042;2022-08-04T11:10:22;24.60;1.00
15638;DHT22;26604;53.596;10.042;2022-08-04T11:12:55;24.60;1.00
15638;DHT22;26604;53.596;10.042;2022-08-04T11:15:25;24.60;1.00
15638;DHT22;26604;53.596;10.042;2022-08-04T11:17:58;24.60;1.00
15638;DHT22;26604;53.596;10.042;2022-08-04T11:20:33;24.70;1.00
15638;DHT22;26604;53.596;10.042;2022-08-04T11:23:04;24.70;1.00
15638;DHT22;26604;53.596;10.042;2022-08-04T11:25:36;24.70;1.00
15638;DHT22;26604;53.596;10.042;2022-08-04T11:28:12;24.70;1.00
15638;DHT22;26604;53.596;10.042;2022-08-04T11:30:55;24.70;1.00
15638;DHT22;26604;53.596;10.042;2022-08-04T11:33:31;24.70;1.00
15638;DHT22;26604;53.596;10.042;2022-08-04T11:36:05;24.70;1.00
15638;DHT22;26604;53.596;10.042;2022-08-04T11:38:38;24.70;1.00
15638;DHT22;26604;53.596;10.042;2022-08-04T11:41:14;24.70;1.00
15638;DHT22;26604;53.596;10.042;2022-08-04T11:43:50;24.70;1.00
15638;DHT22;26604;53.596;10.042;2022-08-04T11:46:22;24.70;1.00
15638;DHT22;26604;53.596;10.042;2022-08-04T11:48:57;24.60;1.00
15638;DHT22;26604;53.596;10.042;2022-08-04T11:51:27;24.70;1.00
15638;DHT22;26604;53.596;10.042;2022-08-04T11:53:55;24.70;1.00
15638;DHT22;26604;53.596;10.042;2022-08-04T11:56:23;24.70;1.00
15638;DHT22;26604;53.596;10.042;2022-08-04T11:58:51;24.70;1.00
15638;DHT22;26604;53.596;10.042;2022-08-04T12:01:27;24.70;1.00
15638;DHT22;26604;53.596;10.042;2022-08-04T12:04:04;24.70;1.00
15638;DHT22;26604;53.596;10.042;2022-08-04T12:06:41;24.80;1.00
15638;DHT22;26604;53.596;10.042;2022-08-04T12:09:15;24.80;1.00
15638;DHT22;26604;53.596;10.042;2022-08-04T12:11:53;24.80;1.00
15638;DHT22;26604;53.596;10.042;2022-08-04T12:14:28;24.80;1.00
15638;DHT22;26604;53.596;10.042;2022-08-04T12:16:58;24.80;1.00
15638;DHT22;26604;53.596;10.042;2022-08-04T12:19:34;24.80;1.00
15638;DHT22;26604;53.596;10.042;2022-08-04T12:22:07;24.80;1.00
15638;DHT22;26604;53.596;10.042;2022-08-04T12:24:40;24.80;1.00
15638;DHT22;26604;53.596;10.042;2022-08-04T12:27:12;24.80;1.00
15638;DHT22;26604;53.596;10.042;2022-08-04T12:29:41;24.80;1.00
15638;DHT22;26604;53.596;10.042;2022-08-04T12:32:21;24.80;1.00
15638;DHT22;26604;53.596;10.042;2022-08-04T12:34:59;24.80;1.00
15638;DHT22;26604;53.596;10.042;2022-08-04T12:37:37;24.80;1.00
15638;DHT22;26604;53.596;10.042;2022-08-04T12:40:11;24.80;1.00
15638;DHT22;26604;53.596;10.042;2022-08-04T12:42:45;24.80;1.00
15638;DHT22;26604;53.596;10.042;2022-08-04T12:45:13;24.80;1.00
15638;DHT22;26604;53.596;10.042;2022-08-04T12:47:42;24.80;1.00
15638;DHT22;26604;53.596;10.042;2022-08-04T12:50:13;24.80;1.00
15638;DHT22;26604;53.596;10.042;2022-08-04T12:52:43;24.90;1.00
15638;DHT22;26604;53.596;10.042;2022-08-04T12:55:12;24.90;1.00
15638;DHT22;26604;53.596;10.042;2022-08-04T12:57:40;24.90;1.00
15638;DHT22;26604;53.596;10.042;2022-08-04T13:00:09;24.90;1.00
15638;DHT22;26604;53.596;10.042;2022-08-04T13:02:41;24.90;1.00
15638;DHT22;26604;53.596;10.042;2022-08-04T13:05:11;24.90;1.00
15638;DHT22;26604;53.596;10.042;2022-08-04T13:07:42;24.90;1.00
15638;DHT22;26604;53.596;10.042;2022-08-04T13:10:12;24.90;1.00
15638;DHT22;26604;53.596;10.042;2022-08-04T13:12:41;24.90;1.00
15638;DHT22;26604;53.596;10.042;2022-08-04T13:15:13;24.90;1.00
15638;DHT22;26604;53.596;10.042;2022-08-04T13:17:48;24.90;1.00
15638;DHT22;26604;53.596;10.042;2022-08-04T13:20:24;24.90;1.00
15638;DHT22;26604;53.596;10.042;2022-08-04T13:22:58;24.90;1.00
15638;DHT22;26604;53.596;10.042;2022-08-04T13:25:27;24.90;1.00
15638;DHT22;26604;53.596;10.042;2022-08-04T13:27:56;24.90;1.00
15638;DHT22;26604;53.596;10.042;2022-08-04T13:30:25;24.90;1.00
15638;DHT22;26604;53.596;10.042;2022-08-04T13:32:54;24.80;1.00
15638;DHT22;26604;53.596;10.042;2022-08-04T13:35:25;24.90;1.00
15638;DHT22;26604;53.596;10.042;2022-08-04T13:37:54;24.80;1.00
15638;DHT22;26604;53.596;10.042;2022-08-04T13:40:22;24.90;1.00
15638;DHT22;26604;53.596;10.042;2022-08-04T13:42:51;24.80;1.00
15638;DHT22;26604;53.596;10.042;2022-08-04T13:45:20;24.90;1.00
15638;DHT22;26604;53.596;10.042;2022-08-04T13:47:48;24.90;1.00
15638;DHT22;26604;53.596;10.042;2022-08-04T13:50:19;24.80;1.00
15638;DHT22;26604;53.596;10.042;2022-08-04T13:52:51;24.80;1.00
15638;DHT22;26604;53.596;10.042;2022-08-04T13:55:22;24.80;1.00
15638;DHT22;26604;53.596;10.042;2022-08-04T13:57:53;24.80;1.00
15638;DHT22;26604;53.596;10.042;2022-08-04T14:00:21;24.80;1.00
15638;DHT22;26604;53.596;10.042;2022-08-04T14:02:55;24.80;1.00
15638;DHT22;26604;53.596;10.042;2022-08-04T14:05:27;24.80;1.00
15638;DHT22;26604;53.596;10.042;2022-08-04T14:07:59;24.90;1.00
15638;DHT22;26604;53.596;10.042;2022-08-04T14:10:29;24.90;1.00
15638;DHT22;26604;53.596;10.042;2022-08-04T14:12:56;24.90;1.00
15638;DHT22;26604;53.596;10.042;2022-08-04T14:15:32;24.90;1.00
15638;DHT22;26604;53.596;10.042;2022-08-04T14:18:17;24.90;1.00
15638;DHT22;26604;53.596;10.042;2022-08-04T14:21:06;24.90;1.00
15638;DHT22;26604;53.596;10.042;2022-08-04T14:23:41;24.90;1.00
15638;DHT22;26604;53.596;10.042;2022-08-04T14:26:16;24.90;1.00
15638;DHT22;26604;53.596;10.042;2022-08-04T14:28:44;25.00;1.00
15638;DHT22;26604;53.596;10.042;2022-08-04T14:31:13;25.00;1.00
15638;DHT22;26604;53.596;10.042;2022-08-04T14:33:41;25.00;1.00
15638;DHT22;26604;53.596;10.042;2022-08-04T14:36:09;25.00;1.00
15638;DHT22;26604;53.596;10.042;2022-08-04T14:38:48;25.00;1.00
15638;DHT22;26604;53.596;10.042;2022-08-04T14:41:16;25.00;1.00
15638;DHT22;26604;53.596;10.042;2022-08-04T14:43:45;25.00;1.00
15638;DHT22;26604;53.596;10.042;2022-08-04T14:46:12;25.00;1.00
15638;DHT22;26604;53.596;10.042;2022-08-04T14:48:40;25.00;1.00
15638;DHT22;26604;53.596;10.042;2022-08-04T14:51:24;25.00;1.00
15638;DHT22;26604;53.596;10.042;2022-08-04T14:53:53;24.90;1.00
15638;DHT22;26604;53.596;10.042;2022-08-04T14:56:20;24.90;1.00
15638;DHT22;26604;53.596;10.042;2022-08-04T14:58:58;24.90;1.00
15638;DHT22;26604;53.596;10.042;2022-08-04T15:01:26;24.90;1.00
15638;DHT22;26604;53.596;10.042;2022-08-04T15:03:53;25.00;1.00
15638;DHT22;26604;53.596;10.042;2022-08-04T15:06:22;25.00;1.00
15638;DHT22;26604;53.596;10.042;2022-08-04T15:08:51;25.00;1.00
15638;DHT22;26604;53.596;10.042;2022-08-04T15:11:20;25.00;1.00
15638;DHT22;26604;53.596;10.042;2022-08-04T15:13:47;25.00;1.00
15638;DHT22;26604;53.596;10.042;2022-08-04T15:16:14;25.00;1.00
15638;DHT22;26604;53.596;10.042;2022-08-04T15:18:41;25.00;1.00
15638;DHT22;26604;53.596;10.042;2022-08-04T15:21:09;25.00;1.00
15638;DHT22;26604;53.596;10.042;2022-08-04T15:23:37;24.90;1.00
15638;DHT22;26604;53.596;10.042;2022-08-04T15:26:05;24.90;1.00
15638;DHT22;26604;53.596;10.042;2022-08-04T15:28:35;24.90;1.00
15638;DHT22;26604;53.596;10.042;2022-08-04T15:31:03;24.90;1.00
15638;DHT22;26604;53.596;10.042;2022-08-04T15:33:31;24.90;1.00
15638;DHT22;26604;53.596;10.042;2022-08-04T15:36:11;24.90;1.00
15638;DHT22;26604;53.596;10.042;2022-08-04T15:38:41;24.90;1.00
15638;DHT22;26604;53.596;10.042;2022-08-04T15:41:19;24.90;1.00
15638;DHT22;26604;53.596;10.042;2022-08-04T15:43:57;24.90;1.00
15638;DHT22;26604;53.596;10.042;2022-08-04T15:49:32;24.80;1.00
15638;DHT22;26604;53.596;10.042;2022-08-04T15:52:00;24.80;1.00
15638;DHT22;26604;53.596;10.042;2022-08-04T15:54:27;24.80;1.00
15638;DHT22;26604;53.596;10.042;2022-08-04T15:56:54;24.80;1.00
15638;DHT22;26604;53.596;10.042;2022-08-04T15:59:56;24.80;1.00
15638;DHT22;26604;53.596;10.042;2022-08-04T16:02:48;24.80;1.00
15638;DHT22;26604;53.596;10.042;2022-08-04T16:05:34;24.80;1.00
15638;DHT22;26604;53.596;10.042;2022-08-04T16:08:15;24.80;1.00
15638;DHT22;26604;53.596;10.042;2022-08-04T16:10:46;24.80;1.00
15638;DHT22;26604;53.596;10.042;2022-08-04T16:13:15;24.80;1.00
15638;DHT22;26604;53.596;10.042;2022-08-04T16:15:52;24.80;1.00
15638;DHT22;26604;53.596;10.042;2022-08-04T16:18:39;24.80;1.00
15638;DHT22;26604;53.596;10.042;2022-08-04T16:21:20;24.80;1.00
15638;DHT22;26604;53.596;10.042;2022-08-04T16:26:50;24.80;1.00
15638;DHT22;26604;53.596;10.042;2022-08-04T16:29:32;24.80;1.00
15638;DHT22;26604;53.596;10.042;2022-08-04T16:32:14;24.80;1.00
15638;DHT22;26604;53.596;10.042;2022-08-04T16:34:44;24.90;1.00
15638;DHT22;26604;53.596;10.042;2022-08-04T16:37:13;24.90;1.00
15638;DHT22;26604;53.596;10.042;2022-08-04T16:39:40;24.90;1.00
15638;DHT22;26604;53.596;10.042;2022-08-04T16:42:30;24.90;1.00
15638;DHT22;26604;53.596;10.042;2022-08-04T16:45:03;24.90;1.00
15638;DHT22;26604;53.596;10.042;2022-08-04T16:48:04;24.90;1.00
15638;DHT22;26604;53.596;10.042;2022-08-04T16:50:33;24.90;1.00
15638;DHT22;26604;53.596;10.042;2022-08-04T16:53:10;24.90;1.00
15638;DHT22;26604;53.596;10.042;2022-08-04T16:55:37;24.90;1.00
15638;DHT22;26604;53.596;10.042;2022-08-04T16:58:04;24.90;1.00
15638;DHT22;26604;53.596;10.042;2022-08-04T17:00:34;24.90;1.00